createdAt,value
2017-05-27T00:00:30.724Z,937.19
2017-05-27T00:01:42.669Z,937.19
2017-05-27T00:02:55.592Z,937.17
2017-05-27T00:04:08.025Z,937.15
2017-05-27T00:05:20.458Z,937.15
2017-05-27T00:06:32.890Z,937.14
2017-05-27T00:07:45.319Z,937.14
2017-05-27T00:08:57.463Z,937.15
2017-05-27T00:10:09.896Z,937.15
2017-05-27T00:11:21.839Z,937.14
2017-05-27T00:12:34.268Z,937.18
2017-05-27T00:13:47.390Z,937.14
2017-05-27T00:14:59.348Z,937.09
2017-05-27T00:16:11.780Z,937.1
2017-05-27T00:17:24.708Z,937.09
2017-05-27T00:18:37.634Z,937.12
2017-05-27T00:19:50.560Z,937.17
2017-05-27T00:21:03.479Z,937.19
2017-05-27T00:22:16.402Z,937.25
2017-05-27T00:23:29.334Z,937.23
2017-05-27T00:24:42.262Z,937.28
2017-05-27T00:25:54.212Z,937.31
2017-05-27T00:27:07.139Z,937.27
2017-05-27T00:28:19.571Z,937.26
2017-05-27T00:29:32.515Z,937.26
2017-05-27T00:30:44.705Z,937.25
2017-05-27T00:31:57.143Z,937.25
2017-05-27T00:33:10.149Z,937.29
2017-05-27T00:34:23.161Z,937.31
2017-05-27T00:35:35.669Z,937.35
2017-05-27T00:36:48.672Z,937.34
2017-05-27T00:38:01.673Z,937.37
2017-05-27T00:39:14.186Z,937.33
2017-05-27T00:40:26.714Z,937.28
2017-05-27T00:41:39.272Z,937.3
2017-05-27T00:42:51.780Z,937.3
2017-05-27T00:44:04.792Z,937.3
2017-05-27T00:45:16.805Z,937.29
2017-05-27T00:46:29.020Z,937.29
2017-05-27T00:47:42.022Z,937.26
2017-05-27T00:48:55.026Z,937.28
2017-05-27T00:50:08.044Z,937.29
2017-05-27T00:51:19.558Z,937.35
2017-05-27T00:52:32.265Z,937.31
2017-05-27T00:53:45.271Z,937.3
2017-05-27T00:54:57.780Z,937.3
2017-05-27T00:56:10.286Z,937.31
2017-05-27T00:57:22.799Z,937.29
2017-05-27T00:58:35.308Z,937.29
2017-05-27T00:59:47.815Z,937.3
2017-05-27T01:01:00.820Z,937.34
2017-05-27T01:02:13.325Z,937.3
2017-05-27T01:03:25.836Z,937.35
2017-05-27T01:04:38.841Z,937.36
2017-05-27T01:05:51.346Z,937.39
2017-05-27T01:07:03.852Z,937.36
2017-05-27T01:08:16.563Z,937.42
2017-05-27T01:09:29.631Z,937.42
2017-05-27T01:10:42.194Z,937.39
2017-05-27T01:11:55.256Z,937.43
2017-05-27T01:13:07.317Z,937.36
2017-05-27T01:14:20.081Z,937.36
2017-05-27T01:15:32.651Z,937.38
2017-05-27T01:16:45.710Z,937.43
2017-05-27T01:17:58.841Z,937.46
2017-05-27T01:19:11.606Z,937.49
2017-05-27T01:20:24.672Z,937.52
2017-05-27T01:21:37.735Z,937.56
2017-05-27T01:22:50.801Z,937.55
2017-05-27T01:24:03.351Z,937.55
2017-05-27T01:25:15.394Z,937.58
2017-05-27T01:26:27.937Z,937.62
2017-05-27T01:27:40.482Z,937.61
2017-05-27T01:28:52.528Z,937.63
2017-05-27T01:30:05.272Z,937.63
2017-05-27T01:31:18.323Z,937.66
2017-05-27T01:32:30.869Z,937.65
2017-05-27T01:33:43.921Z,937.7
2017-05-27T01:34:56.471Z,937.72
2017-05-27T01:36:09.763Z,937.75
2017-05-27T01:37:22.370Z,937.76
2017-05-27T01:38:35.418Z,937.74
2017-05-27T01:39:47.972Z,937.79
2017-05-27T01:41:01.226Z,937.8
2017-05-27T01:42:13.772Z,937.78
2017-05-27T01:43:25.822Z,937.82
2017-05-27T01:44:38.362Z,937.85
2017-05-27T01:45:51.272Z,937.88
2017-05-27T01:47:04.174Z,937.91
2017-05-27T01:48:16.595Z,937.92
2017-05-27T01:49:29.023Z,937.93
2017-05-27T01:50:41.928Z,937.97
2017-05-27T01:51:54.831Z,938
2017-05-27T01:53:07.246Z,937.99
2017-05-27T01:54:19.666Z,938
2017-05-27T01:55:32.571Z,938.06
2017-05-27T01:56:45.475Z,938.03
2017-05-27T01:57:58.385Z,938.03
2017-05-27T01:59:10.310Z,937.97
2017-05-27T02:00:22.722Z,937.98
2017-05-27T02:01:34.647Z,938
2017-05-27T02:02:47.553Z,937.99
2017-05-27T02:04:00.475Z,938.02
2017-05-27T02:05:12.889Z,938.02
2017-05-27T02:06:25.803Z,938.04
2017-05-27T02:07:38.706Z,938.06
2017-05-27T02:08:51.818Z,938.04
2017-05-27T02:10:04.723Z,938.02
2017-05-27T02:11:16.646Z,938.01
2017-05-27T02:12:28.570Z,937.99
2017-05-27T02:13:41.671Z,937.98
2017-05-27T02:14:54.574Z,937.98
2017-05-27T02:16:06.988Z,938.01
2017-05-27T02:17:19.894Z,938.03
2017-05-27T02:18:32.802Z,938.08
2017-05-27T02:19:45.711Z,938.09
2017-05-27T02:20:58.613Z,938.1
2017-05-27T02:22:11.030Z,938.12
2017-05-27T02:23:23.938Z,938.12
2017-05-27T02:24:37.069Z,938.13
2017-05-27T02:25:49.982Z,938.12
2017-05-27T02:27:02.883Z,938.12
2017-05-27T02:28:15.783Z,938.17
2017-05-27T02:29:27.707Z,938.16
2017-05-27T02:30:40.320Z,938.11
2017-05-27T02:31:53.271Z,938.1
2017-05-27T02:33:05.743Z,938.09
2017-05-27T02:34:18.646Z,938.08
2017-05-27T02:35:31.260Z,938.1
2017-05-27T02:36:44.175Z,938.04
2017-05-27T02:37:56.588Z,938.04
2017-05-27T02:39:09.490Z,938.06
2017-05-27T02:40:21.413Z,938.03
2017-05-27T02:41:34.522Z,938.03
2017-05-27T02:42:47.430Z,938
2017-05-27T02:44:00.341Z,938
2017-05-27T02:45:13.252Z,937.99
2017-05-27T02:46:25.862Z,937.98
2017-05-27T02:47:38.278Z,938
2017-05-27T02:48:50.691Z,937.99
2017-05-27T02:50:03.598Z,938
2017-05-27T02:51:16.498Z,937.97
2017-05-27T02:52:28.623Z,937.95
2017-05-27T02:53:40.955Z,937.97
2017-05-27T02:54:52.774Z,937.96
2017-05-27T02:56:04.116Z,938.01
2017-05-27T02:57:16.899Z,938.02
2017-05-27T02:58:29.684Z,938
2017-05-27T02:59:42.466Z,938.02
2017-05-27T03:00:55.252Z,937.98
2017-05-27T03:02:07.551Z,938
2017-05-27T03:03:20.059Z,937.98
2017-05-27T03:04:31.886Z,937.97
2017-05-27T03:05:44.671Z,937.92
2017-05-27T03:06:57.457Z,937.92
2017-05-27T03:08:10.237Z,937.94
2017-05-27T03:09:22.539Z,937.92
2017-05-27T03:10:34.362Z,937.92
2017-05-27T03:11:47.148Z,937.91
2017-05-27T03:12:59.933Z,937.96
2017-05-27T03:14:12.919Z,937.94
2017-05-27T03:15:25.703Z,937.95
2017-05-27T03:16:37.522Z,937.99
2017-05-27T03:17:50.308Z,937.95
2017-05-27T03:19:03.297Z,937.96
2017-05-27T03:20:16.096Z,937.96
2017-05-27T03:21:28.884Z,937.94
2017-05-27T03:22:41.666Z,937.94
2017-05-27T03:23:54.026Z,937.95
2017-05-27T03:25:06.046Z,937.91
2017-05-27T03:26:18.840Z,937.92
2017-05-27T03:27:31.624Z,937.95
2017-05-27T03:28:44.411Z,937.94
2017-05-27T03:29:56.921Z,937.97
2017-05-27T03:31:08.741Z,938.02
2017-05-27T03:32:20.568Z,938.02
2017-05-27T03:33:33.005Z,938.06
2017-05-27T03:34:45.933Z,938.04
2017-05-27T03:35:58.367Z,938.06
2017-05-27T03:37:10.315Z,938.02
2017-05-27T03:38:23.257Z,938.03
2017-05-27T03:39:35.828Z,938.04
2017-05-27T03:40:48.894Z,938.02
2017-05-27T03:42:02.160Z,938.07
2017-05-27T03:43:14.724Z,938.05
2017-05-27T03:44:26.292Z,938.05
2017-05-27T03:45:38.854Z,938.02
2017-05-27T03:46:51.918Z,938.01
2017-05-27T03:48:04.541Z,938.01
2017-05-27T03:49:16.599Z,937.97
2017-05-27T03:50:29.173Z,937.99
2017-05-27T03:51:41.731Z,937.97
2017-05-27T03:52:54.992Z,938
2017-05-27T03:54:08.058Z,938.03
2017-05-27T03:55:20.680Z,938.02
2017-05-27T03:56:33.241Z,938.05
2017-05-27T03:57:46.308Z,938.05
2017-05-27T03:58:57.876Z,938.04
2017-05-27T04:00:10.442Z,938.04
2017-05-27T04:01:23.555Z,938.02
2017-05-27T04:02:36.614Z,938.03
2017-05-27T04:03:49.687Z,938
2017-05-27T04:05:02.748Z,938.04
2017-05-27T04:06:15.311Z,938.02
2017-05-27T04:07:27.367Z,937.96
2017-05-27T04:08:40.492Z,937.95
2017-05-27T04:09:53.414Z,937.94
2017-05-27T04:11:06.338Z,937.95
2017-05-27T04:12:18.765Z,937.92
2017-05-27T04:13:31.199Z,937.94
2017-05-27T04:14:43.831Z,937.93
2017-05-27T04:15:56.751Z,937.92
2017-05-27T04:17:09.671Z,937.89
2017-05-27T04:18:22.119Z,937.88
2017-05-27T04:19:35.046Z,937.85
2017-05-27T04:20:47.473Z,937.81
2017-05-27T04:22:00.391Z,937.84
2017-05-27T04:23:12.325Z,937.81
2017-05-27T04:24:23.757Z,937.8
2017-05-27T04:25:36.373Z,937.76
2017-05-27T04:26:49.281Z,937.79
2017-05-27T04:28:01.696Z,937.81
2017-05-27T04:29:14.605Z,937.77
2017-05-27T04:30:27.019Z,937.77
2017-05-27T04:31:39.920Z,937.74
2017-05-27T04:32:52.826Z,937.73
2017-05-27T04:34:05.246Z,937.75
2017-05-27T04:35:18.152Z,937.73
2017-05-27T04:36:30.560Z,937.68
2017-05-27T04:37:43.455Z,937.7
2017-05-27T04:38:55.868Z,937.72
2017-05-27T04:40:07.791Z,937.74
2017-05-27T04:41:19.714Z,937.72
2017-05-27T04:42:32.182Z,937.71
2017-05-27T04:43:45.091Z,937.7
2017-05-27T04:44:58.000Z,937.72
2017-05-27T04:46:10.901Z,937.68
2017-05-27T04:47:22.335Z,937.67
2017-05-27T04:48:35.437Z,937.67
2017-05-27T04:49:48.345Z,937.57
2017-05-27T04:51:00.762Z,937.56
2017-05-27T04:52:13.660Z,937.55
2017-05-27T04:53:25.584Z,937.56
2017-05-27T04:54:37.996Z,937.54
2017-05-27T04:55:50.901Z,937.55
2017-05-27T04:57:03.806Z,937.55
2017-05-27T04:58:16.705Z,937.57
2017-05-27T04:59:28.846Z,937.52
2017-05-27T05:00:41.746Z,937.49
2017-05-27T05:01:54.650Z,937.53
2017-05-27T05:03:07.067Z,937.44
2017-05-27T05:04:19.988Z,937.47
2017-05-27T05:05:32.403Z,937.44
2017-05-27T05:06:45.304Z,937.46
2017-05-27T05:07:58.191Z,937.48
2017-05-27T05:09:10.496Z,937.52
2017-05-27T05:10:22.797Z,937.49
2017-05-27T05:11:35.097Z,937.45
2017-05-27T05:12:47.879Z,937.42
2017-05-27T05:14:00.661Z,937.39
2017-05-27T05:15:13.163Z,937.38
2017-05-27T05:16:24.980Z,937.38
2017-05-27T05:17:37.295Z,937.41
2017-05-27T05:18:50.087Z,937.39
2017-05-27T05:20:01.914Z,937.39
2017-05-27T05:21:14.414Z,937.39
2017-05-27T05:22:26.717Z,937.33
2017-05-27T05:23:38.535Z,937.37
2017-05-27T05:24:51.322Z,937.34
2017-05-27T05:26:03.621Z,937.33
2017-05-27T05:27:15.645Z,937.35
2017-05-27T05:28:27.946Z,937.36
2017-05-27T05:29:39.769Z,937.34
2017-05-27T05:30:52.553Z,937.32
2017-05-27T05:32:04.855Z,937.31
2017-05-27T05:33:17.841Z,937.33
2017-05-27T05:34:30.147Z,937.3
2017-05-27T05:35:42.449Z,937.31
2017-05-27T05:36:54.755Z,937.31
2017-05-27T05:38:07.056Z,937.34
2017-05-27T05:39:18.877Z,937.3
2017-05-27T05:40:30.705Z,937.28
2017-05-27T05:41:43.489Z,937.33
2017-05-27T05:42:56.280Z,937.34
2017-05-27T05:44:08.785Z,937.36
2017-05-27T05:45:21.570Z,937.38
2017-05-27T05:46:32.909Z,937.34
2017-05-27T05:47:45.209Z,937.36
2017-05-27T05:48:57.506Z,937.35
2017-05-27T05:50:09.327Z,937.35
2017-05-27T05:51:21.625Z,937.34
2017-05-27T05:52:33.942Z,937.31
2017-05-27T05:53:45.885Z,937.28
2017-05-27T05:54:58.322Z,937.28
2017-05-27T05:56:11.249Z,937.31
2017-05-27T05:57:23.679Z,937.24
2017-05-27T05:58:36.108Z,937.19
2017-05-27T05:59:49.032Z,937.16
2017-05-27T06:01:01.961Z,937.15
2017-05-27T06:02:14.390Z,937.16
2017-05-27T06:03:27.353Z,937.1
2017-05-27T06:04:40.282Z,937.09
2017-05-27T06:05:52.719Z,937.12
2017-05-27T06:07:05.148Z,937.09
2017-05-27T06:08:17.581Z,937.05
2017-05-27T06:09:30.009Z,937.04
2017-05-27T06:10:42.934Z,937.06
2017-05-27T06:11:55.070Z,937.06
2017-05-27T06:13:07.013Z,937.02
2017-05-27T06:14:19.445Z,937.04
2017-05-27T06:15:32.383Z,937.05
2017-05-27T06:16:44.817Z,937.08
2017-05-27T06:17:57.735Z,937.06
2017-05-27T06:19:10.166Z,937.02
2017-05-27T06:20:22.610Z,937.01
2017-05-27T06:21:34.545Z,937.01
2017-05-27T06:22:47.663Z,936.99
2017-05-27T06:24:00.586Z,937.06
2017-05-27T06:25:13.015Z,937.07
2017-05-27T06:26:25.445Z,937.07
2017-05-27T06:27:38.568Z,937.12
2017-05-27T06:28:51.000Z,937.09
2017-05-27T06:30:02.936Z,937.14
2017-05-27T06:31:15.364Z,937.15
2017-05-27T06:32:28.294Z,937.21
2017-05-27T06:33:41.419Z,937.23
2017-05-27T06:34:53.850Z,937.19
2017-05-27T06:36:06.770Z,937.21
2017-05-27T06:37:19.204Z,937.21
2017-05-27T06:38:31.835Z,937.18
2017-05-27T06:39:44.759Z,937.21
2017-05-27T06:40:57.677Z,937.15
2017-05-27T06:42:10.598Z,937.17
2017-05-27T06:43:23.045Z,937.18
2017-05-27T06:44:35.969Z,937.21
2017-05-27T06:45:48.401Z,937.23
2017-05-27T06:47:00.830Z,937.22
2017-05-27T06:48:13.261Z,937.19
2017-05-27T06:49:25.700Z,937.22
2017-05-27T06:50:38.165Z,937.22
2017-05-27T06:51:51.096Z,937.24
2017-05-27T06:53:03.034Z,937.23
2017-05-27T06:54:15.961Z,937.23
2017-05-27T06:55:28.393Z,937.27
2017-05-27T06:56:41.318Z,937.28
2017-05-27T06:57:54.241Z,937.29
2017-05-27T06:59:06.667Z,937.3
2017-05-27T07:00:18.815Z,937.31
2017-05-27T07:01:31.246Z,937.34
2017-05-27T07:02:44.170Z,937.34
2017-05-27T07:03:56.110Z,937.37
2017-05-27T07:05:09.030Z,937.39
2017-05-27T07:06:21.659Z,937.41
2017-05-27T07:07:34.577Z,937.45
2017-05-27T07:08:46.517Z,937.44
2017-05-27T07:09:58.943Z,937.46
2017-05-27T07:11:11.371Z,937.48
2017-05-27T07:12:23.812Z,937.44
2017-05-27T07:13:36.733Z,937.43
2017-05-27T07:14:49.647Z,937.45
2017-05-27T07:16:01.582Z,937.46
2017-05-27T07:17:14.705Z,937.44
2017-05-27T07:18:27.626Z,937.47
2017-05-27T07:19:40.060Z,937.48
2017-05-27T07:20:52.497Z,937.43
2017-05-27T07:22:04.636Z,937.45
2017-05-27T07:23:17.554Z,937.45
2017-05-27T07:24:30.534Z,937.47
2017-05-27T07:25:42.972Z,937.45
2017-05-27T07:26:55.899Z,937.47
2017-05-27T07:28:08.329Z,937.47
2017-05-27T07:29:20.765Z,937.47
2017-05-27T07:30:33.685Z,937.5
2017-05-27T07:31:46.605Z,937.51
2017-05-27T07:32:59.727Z,937.45
2017-05-27T07:34:12.647Z,937.46
2017-05-27T07:35:25.562Z,937.46
2017-05-27T07:36:37.989Z,937.45
2017-05-27T07:37:50.911Z,937.44
2017-05-27T07:39:03.840Z,937.44
2017-05-27T07:40:16.766Z,937.37
2017-05-27T07:41:29.686Z,937.39
2017-05-27T07:42:42.608Z,937.38
2017-05-27T07:43:55.725Z,937.35
2017-05-27T07:45:08.154Z,937.34
2017-05-27T07:46:21.073Z,937.35
2017-05-27T07:47:33.500Z,937.32
2017-05-27T07:48:45.933Z,937.32
2017-05-27T07:49:58.367Z,937.35
2017-05-27T07:51:11.290Z,937.3
2017-05-27T07:52:24.210Z,937.31
2017-05-27T07:53:36.647Z,937.33
2017-05-27T07:54:49.766Z,937.29
2017-05-27T07:56:02.197Z,937.34
2017-05-27T07:57:14.134Z,937.34
2017-05-27T07:58:27.056Z,937.34
2017-05-27T07:59:39.984Z,937.34
2017-05-27T08:00:52.617Z,937.33
2017-05-27T08:02:05.050Z,937.32
2017-05-27T08:03:16.986Z,937.32
2017-05-27T08:04:29.922Z,937.32
2017-05-27T08:05:43.044Z,937.33
2017-05-27T08:06:55.471Z,937.35
2017-05-27T08:08:07.405Z,937.36
2017-05-27T08:09:19.825Z,937.36
2017-05-27T08:10:32.236Z,937.37
2017-05-27T08:11:44.157Z,937.38
2017-05-27T08:12:57.052Z,937.44
2017-05-27T08:14:09.472Z,937.4
2017-05-27T08:15:22.374Z,937.4
2017-05-27T08:16:35.276Z,937.44
2017-05-27T08:17:48.378Z,937.48
2017-05-27T08:19:00.788Z,937.48
2017-05-27T08:20:13.697Z,937.45
2017-05-27T08:21:26.596Z,937.49
2017-05-27T08:22:39.495Z,937.46
2017-05-27T08:23:52.399Z,937.43
2017-05-27T08:25:04.814Z,937.51
2017-05-27T08:26:17.716Z,937.5
2017-05-27T08:27:30.612Z,937.53
2017-05-27T08:28:43.225Z,937.51
2017-05-27T08:29:56.144Z,937.55
2017-05-27T08:31:08.071Z,937.55
2017-05-27T08:32:20.482Z,937.57
2017-05-27T08:33:32.608Z,937.61
2017-05-27T08:34:45.017Z,937.62
2017-05-27T08:35:57.433Z,937.68
2017-05-27T08:37:10.331Z,937.67
2017-05-27T08:38:23.285Z,937.68
2017-05-27T08:39:36.386Z,937.67
2017-05-27T08:40:48.798Z,937.71
2017-05-27T08:42:01.696Z,937.68
2017-05-27T08:43:13.614Z,937.69
2017-05-27T08:44:25.762Z,937.71
2017-05-27T08:45:38.664Z,937.75
2017-05-27T08:46:50.590Z,937.75
2017-05-27T08:48:03.486Z,937.76
2017-05-27T08:49:16.388Z,937.78
2017-05-27T08:50:29.002Z,937.82
2017-05-27T08:51:41.412Z,937.84
2017-05-27T08:52:53.811Z,937.82
2017-05-27T08:54:06.597Z,937.78
2017-05-27T08:55:19.482Z,937.8
2017-05-27T08:56:31.789Z,937.82
2017-05-27T08:57:44.155Z,937.85
2017-05-27T08:58:56.454Z,937.83
2017-05-27T09:00:09.241Z,937.86
2017-05-27T09:01:22.224Z,937.86
2017-05-27T09:02:34.529Z,937.9
2017-05-27T09:03:46.831Z,937.92
2017-05-27T09:04:59.611Z,937.94
2017-05-27T09:06:12.596Z,937.96
2017-05-27T09:07:25.382Z,938.01
2017-05-27T09:08:38.164Z,938
2017-05-27T09:09:50.466Z,938.01
2017-05-27T09:11:03.248Z,938.05
2017-05-27T09:12:15.169Z,938
2017-05-27T09:13:27.951Z,938
2017-05-27T09:14:40.260Z,938.02
2017-05-27T09:15:53.042Z,938.02
2017-05-27T09:17:06.027Z,937.98
2017-05-27T09:18:17.849Z,938.02
2017-05-27T09:19:30.149Z,938.01
2017-05-27T09:20:42.449Z,938.03
2017-05-27T09:21:53.787Z,938.04
2017-05-27T09:23:06.571Z,938.02
2017-05-27T09:24:19.356Z,938
2017-05-27T09:25:31.678Z,938.03
2017-05-27T09:26:44.464Z,938.05
2017-05-27T09:27:56.290Z,938.08
2017-05-27T09:29:08.314Z,938.12
2017-05-27T09:30:20.617Z,938.13
2017-05-27T09:31:32.920Z,938.15
2017-05-27T09:32:45.702Z,938.11
2017-05-27T09:33:58.482Z,938.12
2017-05-27T09:35:10.797Z,938.18
2017-05-27T09:36:23.095Z,938.15
2017-05-27T09:37:35.876Z,938.13
2017-05-27T09:38:48.175Z,938.15
2017-05-27T09:40:01.159Z,938.14
2017-05-27T09:41:12.977Z,938.15
2017-05-27T09:42:25.779Z,938.16
2017-05-27T09:43:38.562Z,938.18
2017-05-27T09:44:51.549Z,938.21
2017-05-27T09:46:03.846Z,938.22
2017-05-27T09:47:15.665Z,938.24
2017-05-27T09:48:28.445Z,938.27
2017-05-27T09:49:41.232Z,938.25
2017-05-27T09:50:53.735Z,938.28
2017-05-27T09:52:06.515Z,938.3
2017-05-27T09:53:18.338Z,938.33
2017-05-27T09:54:31.124Z,938.34
2017-05-27T09:55:41.497Z,938.36
2017-05-27T09:56:51.883Z,938.4
2017-05-27T09:58:03.246Z,938.46
2017-05-27T09:59:14.583Z,938.49
2017-05-27T10:00:24.959Z,938.52
2017-05-27T10:01:35.537Z,938.52
2017-05-27T10:02:46.391Z,938.52
2017-05-27T10:03:56.763Z,938.52
2017-05-27T10:05:07.135Z,938.53
2017-05-27T10:06:17.989Z,938.58
2017-05-27T10:07:28.368Z,938.6
2017-05-27T10:08:39.242Z,938.56
2017-05-27T10:09:49.621Z,938.6
2017-05-27T10:11:01.435Z,938.59
2017-05-27T10:12:14.268Z,938.63
2017-05-27T10:13:25.611Z,938.65
2017-05-27T10:14:38.397Z,938.68
2017-05-27T10:15:51.178Z,938.68
2017-05-27T10:17:03.963Z,938.72
2017-05-27T10:18:16.260Z,938.7
2017-05-27T10:19:28.761Z,938.67
2017-05-27T10:20:41.544Z,938.68
2017-05-27T10:21:54.328Z,938.73
2017-05-27T10:23:07.128Z,938.74
2017-05-27T10:24:20.048Z,938.77
2017-05-27T10:25:32.475Z,938.77
2017-05-27T10:26:44.910Z,938.76
2017-05-27T10:27:57.830Z,938.79
2017-05-27T10:29:10.258Z,938.79
2017-05-27T10:30:22.687Z,938.82
2017-05-27T10:31:34.687Z,938.86
2017-05-27T10:32:47.114Z,938.88
2017-05-27T10:33:58.565Z,938.86
2017-05-27T10:35:11.197Z,938.91
2017-05-27T10:36:24.112Z,938.99
2017-05-27T10:37:37.032Z,939.01
2017-05-27T10:38:49.949Z,939.03
2017-05-27T10:40:02.372Z,939.06
2017-05-27T10:41:14.798Z,939.11
2017-05-27T10:42:27.718Z,939.11
2017-05-27T10:43:40.142Z,939.16
2017-05-27T10:44:52.571Z,939.13
2017-05-27T10:46:05.489Z,939.17
2017-05-27T10:47:17.916Z,939.18
2017-05-27T10:48:30.345Z,939.19
2017-05-27T10:49:42.773Z,939.17
2017-05-27T10:50:55.689Z,939.17
2017-05-27T10:52:08.317Z,939.17
2017-05-27T10:53:20.744Z,939.18
2017-05-27T10:54:33.662Z,939.19
2017-05-27T10:55:46.578Z,939.25
2017-05-27T10:56:59.006Z,939.27
2017-05-27T10:58:10.448Z,939.24
2017-05-27T10:59:22.383Z,939.26
2017-05-27T11:00:34.809Z,939.27
2017-05-27T11:01:47.237Z,939.24
2017-05-27T11:03:00.415Z,939.27
2017-05-27T11:04:13.330Z,939.26
2017-05-27T11:05:25.759Z,939.3
2017-05-27T11:06:38.675Z,939.33
2017-05-27T11:07:51.594Z,939.34
2017-05-27T11:09:03.509Z,939.33
2017-05-27T11:10:16.411Z,939.36
2017-05-27T11:11:29.317Z,939.4
2017-05-27T11:12:42.217Z,939.39
2017-05-27T11:13:55.116Z,939.43
2017-05-27T11:15:08.013Z,939.45
2017-05-27T11:16:20.917Z,939.46
2017-05-27T11:17:33.820Z,939.49
2017-05-27T11:18:46.720Z,939.51
2017-05-27T11:19:58.637Z,939.53
2017-05-27T11:21:11.538Z,939.51
2017-05-27T11:22:24.440Z,939.54
2017-05-27T11:23:36.849Z,939.53
2017-05-27T11:24:49.746Z,939.53
2017-05-27T11:26:01.660Z,939.46
2017-05-27T11:27:13.583Z,939.52
2017-05-27T11:28:26.033Z,939.5
2017-05-27T11:29:38.931Z,939.48
2017-05-27T11:30:52.029Z,939.47
2017-05-27T11:32:04.929Z,939.41
2017-05-27T11:33:17.334Z,939.44
2017-05-27T11:34:29.743Z,939.43
2017-05-27T11:35:42.156Z,939.43
2017-05-27T11:36:54.569Z,939.45
2017-05-27T11:38:07.468Z,939.46
2017-05-27T11:39:19.871Z,939.57
2017-05-27T11:40:32.334Z,939.58
2017-05-27T11:41:45.233Z,939.61
2017-05-27T11:42:57.639Z,939.67
2017-05-27T11:44:10.536Z,939.7
2017-05-27T11:45:22.943Z,939.7
2017-05-27T11:46:35.547Z,939.66
2017-05-27T11:47:48.447Z,939.68
2017-05-27T11:49:00.852Z,939.65
2017-05-27T11:50:13.259Z,939.64
2017-05-27T11:51:25.675Z,939.62
2017-05-27T11:52:38.776Z,939.67
2017-05-27T11:53:51.689Z,939.69
2017-05-27T11:55:03.625Z,939.75
2017-05-27T11:56:16.054Z,939.78
2017-05-27T11:57:28.683Z,939.75
2017-05-27T11:58:41.621Z,939.73
2017-05-27T11:59:54.619Z,939.77
2017-05-27T12:01:07.621Z,939.77
2017-05-27T12:02:19.630Z,939.74
2017-05-27T12:03:32.136Z,939.77
2017-05-27T12:04:44.142Z,939.73
2017-05-27T12:05:56.156Z,939.76
2017-05-27T12:07:08.657Z,939.74
2017-05-27T12:08:20.663Z,939.74
2017-05-27T12:09:33.668Z,939.73
2017-05-27T12:10:46.664Z,939.71
2017-05-27T12:11:59.167Z,939.75
2017-05-27T12:13:11.674Z,939.73
2017-05-27T12:14:24.870Z,939.8
2017-05-27T12:15:37.872Z,939.81
2017-05-27T12:16:50.871Z,939.8
2017-05-27T12:18:02.878Z,939.87
2017-05-27T12:19:15.381Z,939.86
2017-05-27T12:20:27.883Z,939.91
2017-05-27T12:21:40.886Z,939.92
2017-05-27T12:22:53.386Z,939.96
2017-05-27T12:24:06.382Z,939.98
2017-05-27T12:25:19.150Z,939.98
2017-05-27T12:26:31.652Z,939.98
2017-05-27T12:27:44.153Z,939.97
2017-05-27T12:28:57.151Z,939.98
2017-05-27T12:30:09.658Z,940.02
2017-05-27T12:31:22.160Z,940.01
2017-05-27T12:32:35.162Z,940.02
2017-05-27T12:33:47.167Z,940.02
2017-05-27T12:34:59.683Z,940.04
2017-05-27T12:36:12.679Z,940.02
2017-05-27T12:37:25.186Z,939.99
2017-05-27T12:38:37.686Z,939.99
2017-05-27T12:39:50.194Z,939.99
2017-05-27T12:41:03.396Z,939.99
2017-05-27T12:42:16.397Z,940.01
2017-05-27T12:43:28.899Z,939.99
2017-05-27T12:44:41.898Z,940
2017-05-27T12:45:54.914Z,940
2017-05-27T12:47:07.918Z,939.95
2017-05-27T12:48:20.423Z,940.01
2017-05-27T12:49:33.422Z,939.99
2017-05-27T12:50:45.924Z,940.05
2017-05-27T12:51:58.426Z,940.11
2017-05-27T12:53:10.436Z,940.13
2017-05-27T12:54:22.442Z,940.14
2017-05-27T12:55:35.441Z,940.14
2017-05-27T12:56:48.440Z,940.12
2017-05-27T12:57:58.958Z,940.08
2017-05-27T12:59:09.477Z,940.11
2017-05-27T13:00:20.494Z,940.08
2017-05-27T13:01:32.010Z,940.06
2017-05-27T13:02:43.030Z,940.04
2017-05-27T13:03:56.033Z,940.05
2017-05-27T13:05:08.533Z,940.01
2017-05-27T13:06:21.531Z,939.99
2017-05-27T13:07:34.531Z,939.98
2017-05-27T13:08:47.530Z,939.98
2017-05-27T13:10:00.527Z,940
2017-05-27T13:11:13.474Z,939.97
2017-05-27T13:12:25.417Z,940
2017-05-27T13:13:38.338Z,940.01
2017-05-27T13:14:51.460Z,940
2017-05-27T13:16:03.885Z,939.96
2017-05-27T13:17:16.315Z,939.99
2017-05-27T13:18:28.743Z,940
2017-05-27T13:19:41.663Z,939.95
2017-05-27T13:20:54.582Z,939.97
2017-05-27T13:22:07.503Z,939.95
2017-05-27T13:23:19.951Z,939.95
2017-05-27T13:24:32.381Z,939.91
2017-05-27T13:25:45.309Z,939.94
2017-05-27T13:26:57.743Z,939.92
2017-05-27T13:28:10.204Z,939.92
2017-05-27T13:29:22.882Z,939.89
2017-05-27T13:30:35.372Z,939.89
2017-05-27T13:31:48.009Z,939.84
2017-05-27T13:33:00.938Z,939.85
2017-05-27T13:34:14.011Z,939.83
2017-05-27T13:35:27.050Z,939.85
2017-05-27T13:36:39.974Z,939.83
2017-05-27T13:37:52.889Z,939.85
2017-05-27T13:39:04.830Z,939.79
2017-05-27T13:40:17.749Z,939.79
2017-05-27T13:41:29.689Z,939.78
2017-05-27T13:42:41.627Z,939.8
2017-05-27T13:43:54.543Z,939.79
2017-05-27T13:45:06.972Z,939.76
2017-05-27T13:46:19.404Z,939.71
2017-05-27T13:47:31.341Z,939.67
2017-05-27T13:48:44.261Z,939.63
2017-05-27T13:49:55.708Z,939.64
2017-05-27T13:51:08.632Z,939.67
2017-05-27T13:52:21.550Z,939.67
2017-05-27T13:53:33.986Z,939.68
2017-05-27T13:54:46.904Z,939.65
2017-05-27T13:55:59.831Z,939.67
2017-05-27T13:57:11.778Z,939.64
2017-05-27T13:58:24.695Z,939.67
2017-05-27T13:59:37.182Z,939.66
2017-05-27T14:00:50.107Z,939.62
2017-05-27T14:02:02.571Z,939.63
2017-05-27T14:03:15.008Z,939.62
2017-05-27T14:04:26.947Z,939.61
2017-05-27T14:05:39.380Z,939.6
2017-05-27T14:06:52.303Z,939.6
2017-05-27T14:08:05.224Z,939.58
2017-05-27T14:09:17.157Z,939.53
2017-05-27T14:10:29.571Z,939.52
2017-05-27T14:11:41.993Z,939.46
2017-05-27T14:12:54.911Z,939.45
2017-05-27T14:14:07.341Z,939.46
2017-05-27T14:15:18.881Z,939.43
2017-05-27T14:16:31.946Z,939.46
2017-05-27T14:17:44.610Z,939.46
2017-05-27T14:18:57.251Z,939.43
2017-05-27T14:20:10.646Z,939.43
2017-05-27T14:21:22.574Z,939.45
2017-05-27T14:22:35.475Z,939.41
2017-05-27T14:23:48.505Z,939.4
2017-05-27T14:25:01.489Z,939.41
2017-05-27T14:26:13.986Z,939.33
2017-05-27T14:27:26.975Z,939.32
2017-05-27T14:28:39.962Z,939.27
2017-05-27T14:29:52.948Z,939.26
2017-05-27T14:31:06.208Z,939.2
2017-05-27T14:32:19.256Z,939.16
2017-05-27T14:33:31.257Z,939.14
2017-05-27T14:34:44.260Z,939.1
2017-05-27T14:35:57.251Z,939.08
2017-05-27T14:37:09.299Z,939.02
2017-05-27T14:38:22.286Z,938.97
2017-05-27T14:39:34.782Z,938.97
2017-05-27T14:40:47.279Z,938.92
2017-05-27T14:42:00.264Z,938.88
2017-05-27T14:43:12.753Z,938.83
2017-05-27T14:44:25.246Z,938.8
2017-05-27T14:45:37.740Z,938.77
2017-05-27T14:46:50.236Z,938.75
2017-05-27T14:48:03.420Z,938.68
2017-05-27T14:49:14.922Z,938.73
2017-05-27T14:50:27.912Z,938.68
2017-05-27T14:51:40.404Z,938.66
2017-05-27T14:52:52.878Z,938.67
2017-05-27T14:54:05.747Z,938.62
2017-05-27T14:55:17.643Z,938.62
2017-05-27T14:56:30.028Z,938.57
2017-05-27T14:57:42.894Z,938.54
2017-05-27T14:58:54.984Z,938.54
2017-05-27T15:00:07.780Z,938.54
2017-05-27T15:01:20.569Z,938.53
2017-05-27T15:02:33.370Z,938.52
2017-05-27T15:03:46.184Z,938.49
2017-05-27T15:04:58.490Z,938.45
2017-05-27T15:06:10.849Z,938.41
2017-05-27T15:07:23.644Z,938.39
2017-05-27T15:08:35.961Z,938.41